Terminal Aerodrome Forecast
Issued by NWS Billings, MT

Home | Current Version | Previous Version | Text Only | Print | Product List | Glossary On
Versions: 1 2 3 4 5 6 7 8 9 10 11 12 13 14
000
FTUS45 KBYZ 251136
TAFBIL
TAF
KBIL 251136Z 2512/2612 25014KT P6SM SCT100
     FM251500 29025G30KT P6SM VCSH BKN030 OVC050
     FM251900 31023G28KT P6SM VCSH BKN040
     FM260100 30010KT P6SM SCT100
     FM260600 25007KT P6SM BKN100=

USA.gov is the U.S. government's official web portal to all federal, state and local government web resources and services.